Weather History for KYKN - November, 2011

Change the Weather History Date:

Tuesday, November 1, 2011

  Actual Average Record
Temperature  
Mean Temperature 46 °F -  
Max Temperature 59 °F 55 °F 81 °F (1990)
Min Temperature 33 °F 33 °F 15 °F (2002)
Degree Days  
Heating Degree Days 19    
Moisture  
Dew Point 32 °F    
Average Humidity 57    
Maximum Humidity 81    
Minimum Humidity 39    
Precipitation  
Precipitation 0.00 in - - ()
Sea Level Pressure  
Sea Level Pressure 29.90 in    
Wind  
Wind Speed 10 mph (NNW)    
Max Wind Speed 22 mph    
Max Gust Speed 29 mph    
Visibility 10 miles    
Events      
Averages and records for this station are not official NWS values.
T = Trace of Precipitation, MM = Missing Value Source: NWS Daily Summary

Daily Weather History Graph

Daily Weather History Graph

Search for Another Location

Airport or City:

Trip Planner

Search our weather history database for the weather conditions in past years. The results will help you decide how hot, cold, wet, or windy it might be!

Date:

Astronomy

Nov. 01, 2011 Rise Set
Actual Time 8:03 AM CDT 6:22 PM CDT
Civil Twilight 7:34 AM CDT 6:51 PM CDT
Nautical Twilight 7:00 AM CDT 7:24 PM CDT
Astronomical Twilight 6:27 AM CDT 7:57 PM CDT
Moon 1:52 PM CDT (11/1) No Moon Set
Length of Visible Light 11h 17m
Length of Day
10h 18m
Waxing Crescent, 40% of the Moon is Illuminated
Nov 1
Waxing Crescent
Nov 2
First Quarter
Nov 10
Full
Nov 18
Last Quarter
Nov 25
New

Hourly Weather History & Observations

Time (CDT) Temp. Windchill Dew Point Humidity Pressure Visibility Wind Dir Wind Speed Gust Speed Precip Events Conditions
12:15 AM 46.4 °F 41.5 °F 28.4 °F 50% 29.80 in 10.0 mi East 10.4 mph - N/A   Clear
12:35 AM 46.4 °F 42.9 °F 28.4 °F 50% 29.81 in 10.0 mi East 6.9 mph - N/A   Clear
12:55 AM 44.6 °F 39.7 °F 28.4 °F 53% 29.80 in 10.0 mi ENE 9.2 mph - N/A   Clear
1:15 AM 44.6 °F 39.7 °F 28.4 °F 53% 29.80 in 10.0 mi East 9.2 mph - N/A   Mostly Cloudy
1:35 AM 44.6 °F 40.7 °F 28.4 °F 53% 29.79 in 10.0 mi East 6.9 mph - N/A   Scattered Clouds
1:55 AM 44.6 °F 40.7 °F 28.4 °F 53% 29.79 in 10.0 mi East 6.9 mph - N/A   Clear
2:15 AM 44.6 °F 39.7 °F 28.4 °F 53% 29.78 in 10.0 mi ESE 9.2 mph - N/A   Clear
2:35 AM 44.6 °F 41.4 °F 28.4 °F 53% 29.79 in 10.0 mi North 5.8 mph - N/A   Clear
2:55 AM 44.6 °F 41.4 °F 30.2 °F 57% 29.79 in 10.0 mi ENE 5.8 mph - N/A   Scattered Clouds
3:15 AM 44.6 °F 40.7 °F 28.4 °F 53% 29.78 in 10.0 mi East 6.9 mph - N/A   Mostly Cloudy
3:35 AM 42.8 °F 40.1 °F 28.4 °F 57% 29.78 in 10.0 mi East 4.6 mph - N/A   Partly Cloudy
3:55 AM 42.8 °F 40.1 °F 28.4 °F 57% 29.79 in 10.0 mi NNE 4.6 mph - N/A   Clear
4:15 AM 41.0 °F 38.0 °F 28.4 °F 61% 29.79 in 10.0 mi East 4.6 mph - N/A   Clear
4:35 AM 42.8 °F 41.1 °F 28.4 °F 57% 29.79 in 10.0 mi East 3.5 mph - N/A   Clear
4:55 AM 39.2 °F - 28.4 °F 65% 29.79 in 10.0 mi Calm Calm - N/A   Clear
5:15 AM 39.2 °F - 28.4 °F 65% 29.80 in 10.0 mi Calm Calm - N/A   Clear
5:35 AM 37.4 °F 34.9 °F 28.4 °F 70% 29.80 in 10.0 mi NW 3.5 mph - N/A   Clear
5:55 AM 35.6 °F 29.2 °F 26.6 °F 70% 29.80 in 10.0 mi NW 8.1 mph - N/A   Clear
6:15 AM 35.6 °F 30.7 °F 28.4 °F 75% 29.80 in 10.0 mi NW 5.8 mph - N/A   Clear
6:35 AM 35.6 °F 28.6 °F 28.4 °F 75% 29.81 in 10.0 mi NW 9.2 mph - N/A   Clear
6:55 AM 33.8 °F 27.0 °F 26.6 °F 75% 29.81 in 10.0 mi NW 8.1 mph - N/A   Clear
7:15 AM 33.8 °F 27.7 °F 26.6 °F 75% 29.82 in 10.0 mi WNW 6.9 mph - N/A   Clear
7:35 AM 33.8 °F 28.6 °F 28.4 °F 81% 29.83 in 10.0 mi WNW 5.8 mph - N/A   Clear
8:15 AM 35.6 °F 26.2 °F 28.4 °F 75% 29.85 in 10.0 mi NW 15.0 mph - N/A   Clear
8:35 AM 35.6 °F 26.2 °F 28.4 °F 75% 29.87 in 10.0 mi NW 15.0 mph - N/A   Clear
8:55 AM 37.4 °F 28.5 °F 28.4 °F 70% 29.88 in 10.0 mi NW 15.0 mph - N/A   Clear
9:15 AM 39.2 °F 30.2 °F 30.2 °F 70% 29.89 in 10.0 mi NW 17.3 mph - N/A   Clear
9:35 AM 44.6 °F 37.2 °F 33.8 °F 66% 29.90 in 10.0 mi NNW 17.3 mph - N/A   Clear
10:15 AM 48.2 °F - 37.4 °F 66% 29.91 in 10.0 mi NNW 18.4 mph 25.3 mph N/A   Partly Cloudy
10:35 AM 50.0 °F - 37.4 °F 62% 29.92 in 10.0 mi NW 16.1 mph 25.3 mph N/A   Partly Cloudy
10:55 AM 51.8 °F - 37.4 °F 58% 29.93 in 10.0 mi NNW 16.1 mph 21.9 mph N/A   Clear
11:15 AM 51.8 °F - 37.4 °F 58% 29.93 in 9.0 mi NNW 13.8 mph - N/A   Partly Cloudy
11:35 AM 51.8 °F - 37.4 °F 58% 29.94 in 10.0 mi NNW 16.1 mph 20.7 mph N/A   Clear
11:55 AM 53.6 °F - 37.4 °F 54% 29.94 in 10.0 mi NNW 15.0 mph - N/A   Clear
12:15 PM 53.6 °F - 39.2 °F 58% 29.94 in 10.0 mi NNW 18.4 mph - N/A   Clear
12:35 PM 55.4 °F - 39.2 °F 54% 29.94 in 10.0 mi NW 16.1 mph 24.2 mph N/A   Clear
12:55 PM 55.4 °F - 37.4 °F 51% 29.94 in 10.0 mi NNW 18.4 mph 23.0 mph N/A   Clear
1:15 PM 55.4 °F - 37.4 °F 51% 29.93 in 10.0 mi NNW 17.3 mph 24.2 mph N/A   Clear
1:35 PM 57.2 °F - 35.6 °F 44% 29.93 in 10.0 mi North 17.3 mph - N/A   Clear
2:15 PM 59.0 °F - 35.6 °F 42% 29.92 in 10.0 mi NNW 20.7 mph 28.8 mph N/A   Clear
2:55 PM 59.0 °F - 33.8 °F 39% 29.93 in 10.0 mi NW 20.7 mph 27.6 mph N/A   Clear
3:15 PM 59.0 °F - 35.6 °F 42% 29.93 in 10.0 mi NNW 18.4 mph 26.5 mph N/A   Clear
3:35 PM 59.0 °F - 35.6 °F 42% 29.93 in 10.0 mi NNW 19.6 mph - N/A   Clear
3:55 PM 57.2 °F - 33.8 °F 41% 29.94 in 10.0 mi North 19.6 mph 27.6 mph N/A   Clear
4:15 PM 57.2 °F - 35.6 °F 44% 29.95 in 10.0 mi NNW 21.9 mph - N/A   Clear
4:35 PM 57.2 °F - 35.6 °F 44% 29.96 in 10.0 mi NNW 16.1 mph 24.2 mph N/A   Clear
4:55 PM 55.4 °F - 35.6 °F 47% 29.96 in 10.0 mi NNW 19.6 mph - N/A   Clear
5:15 PM 55.4 °F - 35.6 °F 47% 29.97 in 10.0 mi NNW 17.3 mph - N/A   Clear
5:35 PM 53.6 °F - 33.8 °F 47% 29.97 in 10.0 mi NNW 15.0 mph - N/A   Clear
5:55 PM 53.6 °F - 33.8 °F 47% 29.98 in 10.0 mi NNW 12.7 mph - N/A   Clear
6:15 PM 51.8 °F - 33.8 °F 50% 29.99 in 10.0 mi North 11.5 mph - N/A   Clear
6:35 PM 51.8 °F - 33.8 °F 50% 30.00 in 10.0 mi North 11.5 mph - N/A   Clear
6:55 PM 50.0 °F - 33.8 °F 54% 30.01 in 10.0 mi NNW 10.4 mph - N/A   Clear
7:15 PM 48.2 °F - 33.8 °F 58% 30.03 in 10.0 mi NNW 10.4 mph - N/A   Clear
7:35 PM 48.2 °F - 33.8 °F 58% 30.03 in 10.0 mi NNW 10.4 mph - N/A   Clear
7:55 PM 48.2 °F - 32.0 °F 54% 30.04 in 10.0 mi NNW 11.5 mph - N/A   Partly Cloudy
8:15 PM 48.2 °F - 30.2 °F 50% 30.04 in 10.0 mi NNW 12.7 mph - N/A   Clear
8:35 PM 46.4 °F 40.4 °F 30.2 °F 53% 30.05 in 10.0 mi NNW 13.8 mph - N/A   Partly Cloudy
8:55 PM 46.4 °F 40.7 °F 30.2 °F 53% 30.05 in 10.0 mi NNW 12.7 mph - N/A   Partly Cloudy
9:35 PM 46.4 °F 40.4 °F 30.2 °F 53% 30.06 in 10.0 mi NNW 13.8 mph 20.7 mph N/A   Clear
9:55 PM 46.4 °F 40.7 °F 30.2 °F 53% 30.07 in 10.0 mi NNW 12.7 mph - N/A   Clear
10:15 PM 46.4 °F 40.4 °F 30.2 °F 53% 30.08 in 10.0 mi North 13.8 mph - N/A   Clear
10:35 PM 46.4 °F 40.7 °F 30.2 °F 53% 30.08 in 10.0 mi NNW 12.7 mph - N/A   Clear
11:15 PM 46.4 °F 40.1 °F 30.2 °F 53% 30.09 in 10.0 mi NNW 15.0 mph - N/A   Partly Cloudy
11:35 PM 46.4 °F 40.4 °F 30.2 °F 53% 30.10 in 10.0 mi NNW 13.8 mph - N/A   Mostly Cloudy
11:55 PM 46.4 °F 39.8 °F 28.4 °F 50% 30.10 in 10.0 mi NNW 16.1 mph - N/A   Overcast